createdAt,value
2023-03-19T00:00:51.696Z,1.10
2023-03-19T00:03:19.216Z,1.27
2023-03-19T00:05:55.924Z,1.10
2023-03-19T00:08:23.828Z,1.52
2023-03-19T00:10:51.924Z,1.50
2023-03-19T00:13:20.338Z,2.15
2023-03-19T00:15:48.274Z,1.20
2023-03-19T00:18:16.140Z,1.70
2023-03-19T00:20:44.551Z,1.88
2023-03-19T00:23:12.262Z,1.50
2023-03-19T00:25:39.822Z,1.70
2023-03-19T00:28:07.452Z,1.42
2023-03-19T00:30:35.344Z,1.70
2023-03-19T00:33:03.529Z,1.90
2023-03-19T00:35:31.232Z,1.70
2023-03-19T00:37:58.793Z,1.52
2023-03-19T00:40:26.372Z,1.88
2023-03-19T00:42:53.995Z,1.67
2023-03-19T00:45:21.641Z,1.30
2023-03-19T00:47:49.164Z,2.28
2023-03-19T00:50:16.951Z,1.95
2023-03-19T00:52:44.460Z,1.98
2023-03-19T00:55:12.026Z,1.70
2023-03-19T00:57:39.589Z,2.03
2023-03-19T01:00:08.640Z,2.88
2023-03-19T01:02:36.177Z,2.13
2023-03-19T01:05:04.100Z,3.70
2023-03-19T01:07:31.595Z,3.25
2023-03-19T01:09:59.226Z,2.55
2023-03-19T01:12:26.779Z,2.13
2023-03-19T01:14:54.525Z,2.65
2023-03-19T01:17:22.049Z,2.20
2023-03-19T01:19:50.932Z,2.10
2023-03-19T01:22:18.523Z,3.72
2023-03-19T01:24:46.058Z,3.10
2023-03-19T01:27:13.622Z,3.65
2023-03-19T01:29:41.163Z,3.40
2023-03-19T01:32:08.817Z,3.50
2023-03-19T01:34:36.613Z,2.75
2023-03-19T01:37:04.183Z,2.70
2023-03-19T01:39:31.758Z,2.83
2023-03-19T01:42:03.257Z,2.72
2023-03-19T01:44:36.962Z,2.90
2023-03-19T01:47:09.112Z,3.50
2023-03-19T01:49:37.046Z,3.67
2023-03-19T01:52:07.345Z,3.45
2023-03-19T01:54:35.345Z,3.30
2023-03-19T01:57:12.327Z,4.15
2023-03-19T01:59:54.073Z,4.07
2023-03-19T02:02:30.483Z,4.05
2023-03-19T02:05:02.827Z,4.05
2023-03-19T02:10:02.132Z,4.15
2023-03-19T02:12:29.617Z,4.60
2023-03-19T02:14:57.132Z,5.25
2023-03-19T02:17:25.040Z,4.57
2023-03-19T02:20:03.108Z,4.32
2023-03-19T02:22:32.805Z,4.53
2023-03-19T02:25:03.647Z,4.68
2023-03-19T02:27:31.341Z,4.43
2023-03-19T02:29:58.849Z,4.65
2023-03-19T02:32:27.012Z,5.70
2023-03-19T02:34:54.483Z,4.80
2023-03-19T02:37:26.161Z,5.63
2023-03-19T02:40:07.829Z,6.40
2023-03-19T02:42:36.097Z,5.40
2023-03-19T02:45:03.724Z,6.88
2023-03-19T02:47:31.577Z,6.55
2023-03-19T02:49:59.116Z,6.35
2023-03-19T02:52:26.976Z,6.70
2023-03-19T02:54:54.593Z,7.18
2023-03-19T02:57:22.184Z,7.53
2023-03-19T02:59:49.713Z,7.68
2023-03-19T03:02:17.510Z,8.90
2023-03-19T03:04:45.914Z,7.35
2023-03-19T03:07:13.553Z,9.63
2023-03-19T03:09:41.322Z,7.88
2023-03-19T03:12:09.288Z,8.20
2023-03-19T03:14:36.920Z,8.52
2023-03-19T03:17:04.640Z,8.02
2023-03-19T03:19:32.181Z,9.68
2023-03-19T03:22:00.693Z,9.40
2023-03-19T03:24:28.824Z,9.55
2023-03-19T03:26:56.308Z,8.55
2023-03-19T03:29:24.139Z,9.27
2023-03-19T03:31:51.936Z,8.88
2023-03-19T03:34:19.891Z,9.63
2023-03-19T03:36:47.924Z,9.90
2023-03-19T03:39:15.484Z,10.38
2023-03-19T03:41:43.074Z,8.82
2023-03-19T03:44:10.548Z,9.27
2023-03-19T03:46:38.241Z,10.25
2023-03-19T03:49:05.737Z,10.00
2023-03-19T03:51:33.242Z,9.40
2023-03-19T03:54:01.168Z,11.23
2023-03-19T03:56:28.759Z,10.43
2023-03-19T03:58:56.567Z,10.75
2023-03-19T04:01:24.113Z,10.98
2023-03-19T04:03:51.722Z,11.45
2023-03-19T04:06:23.096Z,10.88
2023-03-19T04:08:50.961Z,12.10
2023-03-19T04:11:18.514Z,12.55
2023-03-19T04:13:46.886Z,10.57
2023-03-19T04:16:15.554Z,11.95
2023-03-19T04:18:43.116Z,10.63
2023-03-19T04:21:10.684Z,12.57
2023-03-19T04:23:38.439Z,11.85
2023-03-19T04:26:08.037Z,11.75
2023-03-19T04:28:36.294Z,12.35
2023-03-19T04:31:08.254Z,13.88
2023-03-19T04:33:36.789Z,13.48
2023-03-19T04:36:05.248Z,12.35
2023-03-19T04:38:32.906Z,12.40
2023-03-19T04:41:01.616Z,12.48
2023-03-19T04:43:29.135Z,13.32
2023-03-19T04:45:56.842Z,13.82
2023-03-19T04:48:24.486Z,12.82
2023-03-19T04:50:53.305Z,13.60
2023-03-19T04:53:21.374Z,14.15
2023-03-19T04:55:48.848Z,13.50
2023-03-19T04:58:16.567Z,14.93
2023-03-19T05:00:46.875Z,15.38
2023-03-19T05:03:17.619Z,15.93
2023-03-19T05:05:45.290Z,16.50
2023-03-19T05:08:13.656Z,15.45
2023-03-19T05:10:41.649Z,16.52
2023-03-19T05:13:09.264Z,14.82
2023-03-19T05:15:36.891Z,17.08
2023-03-19T05:18:04.491Z,13.90
2023-03-19T05:20:32.240Z,15.18
2023-03-19T05:23:00.029Z,18.23
2023-03-19T05:25:28.065Z,21.73
2023-03-19T05:27:55.697Z,24.83
2023-03-19T05:30:23.608Z,25.73
2023-03-19T05:32:51.653Z,25.02
2023-03-19T05:35:19.524Z,19.95
2023-03-19T05:37:47.154Z,22.75
2023-03-19T05:40:14.833Z,22.95
2023-03-19T05:42:42.397Z,24.80
2023-03-19T05:45:10.098Z,26.52
2023-03-19T05:47:37.707Z,24.35
2023-03-19T05:50:05.533Z,23.65
2023-03-19T05:52:33.026Z,24.67
2023-03-19T05:55:00.587Z,22.27
2023-03-19T05:57:28.303Z,24.00
2023-03-19T05:59:55.776Z,22.30
2023-03-19T06:02:23.394Z,22.35
2023-03-19T06:04:51.209Z,22.75
2023-03-19T06:07:18.784Z,21.17
2023-03-19T06:09:46.638Z,21.92
2023-03-19T06:12:14.132Z,20.23
2023-03-19T06:14:41.679Z,19.70
2023-03-19T06:17:09.401Z,17.98
2023-03-19T06:19:36.980Z,17.77
2023-03-19T06:22:04.540Z,18.52
2023-03-19T06:24:32.065Z,17.77
2023-03-19T06:26:59.544Z,18.83
2023-03-19T06:29:27.181Z,17.83
2023-03-19T06:31:57.548Z,20.08
2023-03-19T06:34:25.703Z,19.85
2023-03-19T06:36:53.793Z,18.20
2023-03-19T06:39:22.650Z,19.05
2023-03-19T06:41:50.324Z,18.52
2023-03-19T06:44:17.963Z,18.80
2023-03-19T06:46:46.147Z,21.77
2023-03-19T06:49:13.641Z,17.80
2023-03-19T06:51:41.520Z,19.75
2023-03-19T06:54:09.032Z,19.77
2023-03-19T06:56:36.779Z,20.88
2023-03-19T06:59:05.217Z,19.15
2023-03-19T07:01:32.849Z,20.27
2023-03-19T07:04:00.418Z,19.58
2023-03-19T07:06:27.982Z,19.35
2023-03-19T07:08:57.104Z,19.23
2023-03-19T07:11:24.666Z,20.60
2023-03-19T07:13:52.289Z,22.38
2023-03-19T07:16:20.800Z,19.40
2023-03-19T07:18:48.368Z,20.42
2023-03-19T07:21:15.916Z,18.63
2023-03-19T07:23:43.464Z,19.95
2023-03-19T07:26:11.584Z,19.65
2023-03-19T07:28:39.113Z,20.98
2023-03-19T07:31:07.001Z,20.38
2023-03-19T07:33:34.848Z,20.80
2023-03-19T07:36:02.429Z,20.08
2023-03-19T07:38:29.973Z,21.20
2023-03-19T07:41:02.383Z,20.50
2023-03-19T07:43:30.844Z,21.98
2023-03-19T07:45:58.650Z,22.10
2023-03-19T07:48:26.303Z,21.80
2023-03-19T07:50:54.430Z,21.77
2023-03-19T07:53:22.043Z,21.98
2023-03-19T07:55:49.931Z,22.30
2023-03-19T07:58:18.216Z,23.80
2023-03-19T08:00:46.136Z,23.90
2023-03-19T08:03:13.962Z,23.70
2023-03-19T08:05:41.975Z,20.70
2023-03-19T08:08:09.709Z,20.15
2023-03-19T08:10:38.789Z,20.58
2023-03-19T08:13:06.854Z,19.77
2023-03-19T08:15:34.702Z,20.25
2023-03-19T08:18:04.878Z,18.85
2023-03-19T08:20:33.489Z,18.05
2023-03-19T08:23:01.225Z,16.88
2023-03-19T08:25:32.350Z,17.15
2023-03-19T08:28:01.415Z,17.58
2023-03-19T08:30:29.406Z,15.52
2023-03-19T08:32:57.450Z,14.77
2023-03-19T08:35:26.965Z,15.85
2023-03-19T08:37:55.608Z,14.18
2023-03-19T08:40:23.813Z,13.13
2023-03-19T08:42:51.398Z,12.23
2023-03-19T08:45:19.939Z,14.25
2023-03-19T08:47:47.618Z,14.50
2023-03-19T08:50:15.749Z,16.88
2023-03-19T08:52:43.385Z,16.25
2023-03-19T08:55:11.501Z,19.40
2023-03-19T08:57:39.104Z,19.25
2023-03-19T09:00:07.758Z,17.75
2023-03-19T09:02:35.298Z,16.92
2023-03-19T09:05:02.859Z,18.30
2023-03-19T09:07:30.584Z,17.30
2023-03-19T09:09:58.179Z,17.50
2023-03-19T09:12:26.089Z,16.05
2023-03-19T09:14:53.555Z,15.48
2023-03-19T09:17:21.098Z,17.70
2023-03-19T09:19:48.634Z,17.48
2023-03-19T09:22:16.163Z,16.73
2023-03-19T09:24:43.913Z,16.75
2023-03-19T09:27:11.532Z,17.15
2023-03-19T09:29:39.070Z,20.55
2023-03-19T09:32:06.951Z,17.58
2023-03-19T09:34:34.510Z,17.25
2023-03-19T09:37:02.118Z,19.60
2023-03-19T09:39:29.964Z,18.05
2023-03-19T09:42:21.876Z,17.75
2023-03-19T09:44:50.247Z,18.20
2023-03-19T09:47:27.024Z,16.45
2023-03-19T09:49:58.226Z,18.60
2023-03-19T09:52:43.689Z,18.50
2023-03-19T09:55:17.448Z,18.48
2023-03-19T09:57:45.225Z,17.70
2023-03-19T10:00:23.328Z,17.42
2023-03-19T10:03:13.245Z,17.50
2023-03-19T10:05:51.484Z,17.48
2023-03-19T10:08:27.577Z,15.88
2023-03-19T10:11:04.776Z,16.27
2023-03-19T10:14:11.025Z,14.57
2023-03-19T10:16:42.439Z,13.00
2023-03-19T10:19:14.032Z,12.40
2023-03-19T10:21:46.956Z,12.40
2023-03-19T10:24:24.703Z,12.60
2023-03-19T10:27:01.574Z,13.57
2023-03-19T10:29:29.316Z,13.23
2023-03-19T10:32:14.216Z,14.63
2023-03-19T10:34:53.994Z,13.63
2023-03-19T10:37:28.444Z,13.55
2023-03-19T10:40:01.452Z,13.93
2023-03-19T10:43:03.040Z,13.00
2023-03-19T10:45:30.672Z,14.38
2023-03-19T10:47:59.589Z,14.65
2023-03-19T10:50:35.543Z,13.20
2023-03-19T10:53:22.324Z,13.50
2023-03-19T10:56:00.947Z,14.50
2023-03-19T10:58:31.692Z,13.50
2023-03-19T11:01:05.696Z,12.55
2023-03-19T11:03:38.044Z,13.32
2023-03-19T11:06:37.666Z,11.82
2023-03-19T11:09:11.372Z,14.18
2023-03-19T11:11:54.667Z,13.85
2023-03-19T11:14:29.065Z,13.13
2023-03-19T11:17:05.684Z,13.27
2023-03-19T11:19:40.970Z,13.52
2023-03-19T11:22:08.480Z,14.02
2023-03-19T11:24:41.124Z,12.05
2023-03-19T11:27:11.541Z,12.30
2023-03-19T11:29:43.008Z,14.23
2023-03-19T11:32:32.262Z,11.40
2023-03-19T11:35:08.519Z,11.15
2023-03-19T11:37:58.281Z,10.90
2023-03-19T11:40:57.578Z,11.88
2023-03-19T11:43:50.687Z,12.48
2023-03-19T11:46:42.910Z,13.00
2023-03-19T11:49:19.402Z,14.10
2023-03-19T11:52:00.830Z,14.00
2023-03-19T11:54:32.188Z,12.82
2023-03-19T11:57:15.452Z,11.70
2023-03-19T12:00:01.038Z,10.73
2023-03-19T12:02:57.713Z,13.02
2023-03-19T12:05:34.377Z,13.18
2023-03-19T12:08:08.126Z,12.68
2023-03-19T12:10:41.399Z,15.32
2023-03-19T12:13:17.193Z,13.18
2023-03-19T12:15:57.567Z,15.85
2023-03-19T12:18:54.285Z,14.15
2023-03-19T12:21:32.476Z,17.05
2023-03-19T12:24:05.055Z,15.15
2023-03-19T12:26:39.204Z,15.23
2023-03-19T12:29:22.092Z,16.75
2023-03-19T12:32:08.357Z,14.30
2023-03-19T12:34:39.141Z,16.98
2023-03-19T12:37:24.897Z,17.55
2023-03-19T12:40:30.004Z,17.55
2023-03-19T12:43:00.108Z,18.05
2023-03-19T12:45:32.061Z,18.08
2023-03-19T12:48:13.020Z,17.55
2023-03-19T12:50:45.144Z,18.60
2023-03-19T12:53:31.198Z,13.77
2023-03-19T12:56:03.293Z,14.68
2023-03-19T12:58:44.913Z,15.20
2023-03-19T13:01:18.352Z,14.97
2023-03-19T13:04:00.445Z,15.60
2023-03-19T13:06:30.021Z,14.43
2023-03-19T13:09:18.767Z,14.05
2023-03-19T13:11:55.868Z,14.70
2023-03-19T13:14:33.634Z,13.35
2023-03-19T13:17:21.405Z,12.43
2023-03-19T13:19:52.729Z,10.45
2023-03-19T13:22:23.246Z,12.43
2023-03-19T13:24:53.460Z,11.73
2023-03-19T13:27:28.099Z,10.68
2023-03-19T13:30:10.967Z,11.02
2023-03-19T13:32:39.001Z,11.15
2023-03-19T13:35:22.377Z,10.30
2023-03-19T13:37:57.424Z,11.27
2023-03-19T13:41:01.142Z,9.05
2023-03-19T13:43:31.754Z,9.30
2023-03-19T13:46:12.748Z,10.52
2023-03-19T13:49:00.550Z,8.82
2023-03-19T13:51:32.996Z,10.32
2023-03-19T13:54:00.432Z,12.38
2023-03-19T13:56:30.707Z,10.40
2023-03-19T13:59:16.391Z,10.82
2023-03-19T14:01:48.657Z,8.88
2023-03-19T14:06:51.135Z,9.07
2023-03-19T14:09:49.437Z,10.63
2023-03-19T14:12:17.004Z,10.25
2023-03-19T14:18:18.751Z,8.57
2023-03-19T14:20:59.219Z,11.98
2023-03-19T14:23:40.566Z,10.50
2023-03-19T14:26:22.882Z,9.45
2023-03-19T14:28:54.810Z,10.93
2023-03-19T14:31:45.834Z,8.73
2023-03-19T14:34:25.794Z,10.55
2023-03-19T14:37:11.549Z,10.43
2023-03-19T14:39:44.463Z,9.70
2023-03-19T14:42:32.052Z,10.48
2023-03-19T14:45:09.250Z,9.98
2023-03-19T14:47:52.837Z,10.73
2023-03-19T14:50:28.344Z,9.60
2023-03-19T14:53:18.866Z,8.63
2023-03-19T14:55:52.004Z,9.35
2023-03-19T14:58:23.246Z,9.48
2023-03-19T15:00:54.086Z,9.55
2023-03-19T15:03:36.998Z,8.90
2023-03-19T15:06:07.701Z,9.60
2023-03-19T15:08:39.295Z,11.45
2023-03-19T15:11:23.967Z,9.35
2023-03-19T15:13:54.241Z,7.88
2023-03-19T15:16:44.526Z,8.48
2023-03-19T15:19:12.754Z,8.50
2023-03-19T15:21:40.928Z,8.82
2023-03-19T15:24:15.885Z,7.28
2023-03-19T15:26:43.423Z,8.00
2023-03-19T15:29:13.587Z,8.32
2023-03-19T15:32:02.344Z,11.57
2023-03-19T15:34:32.095Z,10.65
2023-03-19T15:37:05.701Z,10.80
2023-03-19T15:39:38.496Z,10.77
2023-03-19T15:42:06.829Z,12.35
2023-03-19T15:44:45.593Z,12.60
2023-03-19T15:47:18.623Z,13.27
2023-03-19T15:50:00.180Z,14.07
2023-03-19T15:52:29.092Z,11.03
2023-03-19T15:54:57.194Z,15.65
2023-03-19T15:57:26.014Z,17.30
2023-03-19T15:59:56.814Z,18.23
2023-03-19T16:02:33.883Z,17.83
2023-03-19T16:07:58.141Z,19.15
2023-03-19T16:10:34.360Z,18.13
2023-03-19T16:13:05.066Z,18.67
2023-03-19T16:15:43.888Z,18.90
2023-03-19T16:18:17.947Z,17.60
2023-03-19T16:20:51.112Z,20.25
2023-03-19T16:23:19.735Z,20.40
2023-03-19T16:25:48.250Z,19.17
2023-03-19T16:28:23.785Z,18.95
2023-03-19T16:30:52.696Z,20.25
2023-03-19T16:33:20.873Z,20.70
2023-03-19T16:35:48.585Z,18.88
2023-03-19T16:38:23.665Z,18.23
2023-03-19T16:41:16.284Z,20.60
2023-03-19T16:43:47.189Z,19.20
2023-03-19T16:46:16.732Z,22.98
2023-03-19T16:48:44.453Z,20.13
2023-03-19T16:51:18.450Z,18.48
2023-03-19T16:53:47.341Z,21.23
2023-03-19T16:56:18.745Z,19.75
2023-03-19T16:58:48.461Z,16.47
2023-03-19T17:01:24.918Z,19.35
2023-03-19T17:03:53.784Z,17.70
2023-03-19T17:06:22.581Z,18.65
2023-03-19T17:08:50.440Z,19.25
2023-03-19T17:11:35.208Z,20.95
2023-03-19T17:14:03.856Z,18.45
2023-03-19T17:16:31.629Z,17.27
2023-03-19T17:18:59.593Z,17.02
2023-03-19T17:21:30.883Z,17.27
2023-03-19T17:23:58.492Z,17.65
2023-03-19T17:26:28.671Z,17.08
2023-03-19T17:28:57.708Z,17.08
2023-03-19T17:31:31.220Z,18.63
2023-03-19T17:34:13.495Z,16.92
2023-03-19T17:36:41.205Z,18.05
2023-03-19T17:39:11.279Z,16.63
2023-03-19T17:41:38.888Z,17.58
2023-03-19T17:44:06.910Z,17.80
2023-03-19T17:46:39.796Z,19.25
2023-03-19T17:49:13.308Z,18.98
2023-03-19T17:51:40.847Z,19.15
2023-03-19T17:54:12.729Z,19.17
2023-03-19T17:56:41.711Z,17.45
2023-03-19T17:59:09.319Z,20.23
2023-03-19T18:01:37.650Z,19.02
2023-03-19T18:04:05.728Z,18.95
2023-03-19T18:06:36.514Z,19.98
2023-03-19T18:09:04.289Z,18.83
2023-03-19T18:11:31.963Z,21.83
2023-03-19T18:13:59.522Z,19.95
2023-03-19T18:16:30.345Z,19.65
2023-03-19T18:19:01.385Z,19.95
2023-03-19T18:21:30.034Z,18.02
2023-03-19T18:23:57.774Z,20.83
2023-03-19T18:26:26.398Z,20.08
2023-03-19T18:28:53.938Z,19.00
2023-03-19T18:31:25.467Z,18.73
2023-03-19T18:33:57.821Z,16.48
2023-03-19T18:38:55.861Z,16.63
2023-03-19T18:41:25.671Z,18.85
2023-03-19T18:43:53.261Z,19.33
2023-03-19T18:46:29.124Z,20.38
2023-03-19T18:49:03.124Z,18.30
2023-03-19T18:51:30.923Z,16.30
2023-03-19T18:53:58.510Z,17.42
2023-03-19T18:56:32.987Z,17.17
2023-03-19T18:59:01.700Z,20.77
2023-03-19T19:01:29.802Z,18.17
2023-03-19T19:03:57.447Z,17.00
2023-03-19T19:06:46.739Z,17.73
2023-03-19T19:09:15.213Z,15.52
2023-03-19T19:11:47.626Z,15.02
2023-03-19T19:14:25.354Z,15.20
2023-03-19T19:16:54.554Z,13.20
2023-03-19T19:19:24.989Z,13.52
2023-03-19T19:21:53.180Z,12.70
2023-03-19T19:24:21.586Z,13.48
2023-03-19T19:26:54.116Z,14.30
2023-03-19T19:29:31.442Z,12.73
2023-03-19T19:32:00.554Z,16.10
2023-03-19T19:34:28.078Z,14.13
2023-03-19T19:36:58.622Z,14.20
2023-03-19T19:39:27.395Z,13.57
2023-03-19T19:41:55.724Z,13.40
2023-03-19T19:44:23.754Z,15.32
2023-03-19T19:46:55.802Z,11.93
2023-03-19T19:49:25.157Z,12.70
2023-03-19T19:51:53.955Z,13.88
2023-03-19T19:54:22.840Z,10.65
2023-03-19T19:56:52.193Z,8.85
2023-03-19T19:59:21.557Z,10.82
2023-03-19T20:01:49.192Z,10.13
2023-03-19T20:04:18.212Z,11.35
2023-03-19T20:06:45.803Z,9.80
2023-03-19T20:09:13.398Z,10.00
2023-03-19T20:11:42.162Z,11.75
2023-03-19T20:14:14.599Z,10.90
2023-03-19T20:16:45.203Z,9.48
2023-03-19T20:19:19.503Z,11.57
2023-03-19T20:21:47.217Z,10.30
2023-03-19T20:24:14.797Z,10.25
2023-03-19T20:26:42.781Z,11.65
2023-03-19T20:29:16.588Z,9.63
2023-03-19T20:31:47.003Z,10.32
2023-03-19T20:34:32.421Z,11.35
2023-03-19T20:37:04.129Z,11.57
2023-03-19T20:39:31.664Z,10.52
2023-03-19T20:41:59.277Z,11.45
2023-03-19T20:44:27.116Z,10.43
2023-03-19T20:46:54.666Z,11.82
2023-03-19T20:49:22.743Z,10.60
2023-03-19T20:51:50.547Z,11.10
2023-03-19T20:54:18.047Z,10.90
2023-03-19T20:56:46.348Z,10.63
2023-03-19T20:59:13.908Z,9.18
2023-03-19T21:01:41.554Z,10.45
2023-03-19T21:04:18.846Z,10.13
2023-03-19T21:06:53.310Z,9.63
2023-03-19T21:09:21.574Z,9.23
2023-03-19T21:11:49.748Z,7.93
2023-03-19T21:14:17.253Z,8.57
2023-03-19T21:16:44.810Z,6.85
2023-03-19T21:19:12.585Z,7.28
2023-03-19T21:21:42.108Z,6.03
2023-03-19T21:24:16.569Z,7.00
2023-03-19T21:26:45.787Z,7.25
2023-03-19T21:29:27.759Z,6.97
2023-03-19T21:31:56.683Z,6.57
2023-03-19T21:34:24.248Z,7.15
2023-03-19T21:36:52.024Z,7.32
2023-03-19T21:39:19.583Z,7.78
2023-03-19T21:41:47.561Z,7.03
2023-03-19T21:44:19.622Z,7.00
2023-03-19T21:46:49.088Z,7.47
2023-03-19T21:49:17.604Z,6.90
2023-03-19T21:51:46.726Z,7.20
2023-03-19T21:54:15.645Z,5.60
2023-03-19T21:56:46.159Z,6.65
2023-03-19T21:59:23.646Z,5.28
2023-03-19T22:01:51.419Z,4.53
2023-03-19T22:04:19.605Z,3.97
2023-03-19T22:06:49.081Z,4.22
2023-03-19T22:09:16.592Z,4.45
2023-03-19T22:11:45.955Z,4.22
2023-03-19T22:14:19.007Z,4.25
2023-03-19T22:16:47.858Z,3.50
2023-03-19T22:19:19.095Z,4.30
2023-03-19T22:21:47.341Z,5.07
2023-03-19T22:24:14.894Z,6.03
2023-03-19T22:26:44.333Z,5.70
2023-03-19T22:29:18.430Z,5.85
2023-03-19T22:31:46.533Z,5.63
2023-03-19T22:34:22.886Z,5.70
2023-03-19T22:36:50.692Z,5.80
2023-03-19T22:39:18.679Z,5.82
2023-03-19T22:41:48.624Z,6.20
2023-03-19T22:44:29.160Z,4.07
2023-03-19T22:46:58.253Z,3.88
2023-03-19T22:49:26.418Z,4.15
2023-03-19T22:51:53.904Z,5.38
2023-03-19T22:54:21.451Z,4.70
2023-03-19T22:56:48.956Z,3.53
2023-03-19T22:59:16.472Z,4.35
2023-03-19T23:01:48.419Z,4.63
2023-03-19T23:04:20.272Z,4.97
2023-03-19T23:06:48.471Z,4.78
2023-03-19T23:09:18.408Z,5.13
2023-03-19T23:11:46.300Z,5.50
2023-03-19T23:14:27.903Z,5.35
2023-03-19T23:19:33.098Z,6.22
2023-03-19T23:22:02.479Z,8.82
2023-03-19T23:24:31.051Z,7.45
2023-03-19T23:27:00.467Z,8.05
2023-03-19T23:29:33.045Z,8.77
2023-03-19T23:32:00.908Z,9.27
2023-03-19T23:34:29.465Z,10.38
2023-03-19T23:36:57.929Z,10.65
2023-03-19T23:39:25.591Z,10.55
2023-03-19T23:41:57.086Z,10.85
2023-03-19T23:44:24.665Z,11.77
2023-03-19T23:46:52.646Z,12.15
2023-03-19T23:49:29.810Z,10.75
2023-03-19T23:51:57.432Z,11.57
2023-03-19T23:54:32.844Z,10.35
2023-03-19T23:57:04.187Z,9.98
2023-03-19T23:59:35.730Z,8.83
